Glen Arbor, Michigan
Current Conditions -  °F | °C
As of 8:13 AM on Thursday 27 Nov 2014 (Local Time) from KFKS Reporting Station
Light Snow Light Snow  
Wind Chill: 17°   Ceiling: 1200
Heat Index: 26°   Visibility: 1.7mi
Dew Point: 23°   Wind: 9mph
Humidity: 87%   Direction: 360°N
Pressure: 30.2"   Gusts: 21mph
Location:  44.9°N, 85.99°W
Report Text: KFKS 271313Z AUTO 36008G18KT 1 3/4SM -SN OVC012 M03/M05 A3020 RMK AO2 VIS 1V3 T10331052
Loading
Personal Weather Stations






























Interactive Weather Map New forecast layout! Learn more

10-Day Weather Forecast

Advertisements
Track Severe Weather on mobile